sensor_id;sensor_type;location;lat;lon;timestamp;pressure;altitude;pressure_sealevel;temperature;humidity
5053;BME280;2545;50.892;5.740;2023-09-18T00:01:03;56023.84;;;-142.21;78.02
5053;BME280;2545;50.892;5.740;2023-09-18T00:03:29;56041.50;;;-142.21;78.10
5053;BME280;2545;50.892;5.740;2023-09-18T00:05:54;56031.69;;;-142.21;78.17
5053;BME280;2545;50.892;5.740;2023-09-18T00:08:20;56006.22;;;-142.21;79.09
5053;BME280;2545;50.892;5.740;2023-09-18T00:10:53;56027.78;;;-142.21;79.64
5053;BME280;2545;50.892;5.740;2023-09-18T00:13:18;56006.22;;;-142.21;79.88
5053;BME280;2545;50.892;5.740;2023-09-18T00:15:44;56047.38;;;-142.21;79.71
5053;BME280;2545;50.892;5.740;2023-09-18T00:18:13;56037.56;;;-142.21;80.23
5053;BME280;2545;50.892;5.740;2023-09-18T00:20:38;56031.69;;;-142.21;80.13
5053;BME280;2545;50.892;5.740;2023-09-18T00:23:04;56025.81;;;-142.21;80.39
5053;BME280;2545;50.892;5.740;2023-09-18T00:25:30;56000.31;;;-142.21;80.09
5053;BME280;2545;50.892;5.740;2023-09-18T00:27:55;56043.47;;;-142.21;80.20
5053;BME280;2545;50.892;5.740;2023-09-18T00:30:21;56017.97;;;-142.21;79.78
5053;BME280;2545;50.892;5.740;2023-09-18T00:32:46;55992.47;;;-142.21;79.77
5053;BME280;2545;50.892;5.740;2023-09-18T00:35:15;56037.56;;;-142.21;79.96
5053;BME280;2545;50.892;5.740;2023-09-18T00:37:40;56023.84;;;-142.21;79.37
5053;BME280;2545;50.892;5.740;2023-09-18T00:40:07;56033.66;;;-142.21;78.59
5053;BME280;2545;50.892;5.740;2023-09-18T00:42:32;56000.31;;;-142.21;78.71
5053;BME280;2545;50.892;5.740;2023-09-18T00:44:57;56012.09;;;-142.21;78.35
5053;BME280;2545;50.892;5.740;2023-09-18T00:47:23;56021.88;;;-142.21;77.70
5053;BME280;2545;50.892;5.740;2023-09-18T00:49:49;56047.38;;;-142.21;76.80
5053;BME280;2545;50.892;5.740;2023-09-18T00:52:17;56033.66;;;-142.21;75.98
5053;BME280;2545;50.892;5.740;2023-09-18T00:54:44;55976.78;;;-142.21;75.35
5053;BME280;2545;50.892;5.740;2023-09-18T00:57:10;56014.06;;;-142.21;75.93
5053;BME280;2545;50.892;5.740;2023-09-18T00:59:37;55994.44;;;-142.21;76.68
5053;BME280;2545;50.892;5.740;2023-09-18T01:02:02;56010.13;;;-142.21;76.50
5053;BME280;2545;50.892;5.740;2023-09-18T01:04:29;56049.34;;;-142.21;76.94
5053;BME280;2545;50.892;5.740;2023-09-18T01:06:55;56010.13;;;-142.21;77.29
5053;BME280;2545;50.892;5.740;2023-09-18T01:09:23;56045.41;;;-142.21;77.19
5053;BME280;2545;50.892;5.740;2023-09-18T01:14:44;56010.13;;;-142.21;76.13
5053;BME280;2545;50.892;5.740;2023-09-18T01:17:16;56010.13;;;-142.21;75.48
5053;BME280;2545;50.892;5.740;2023-09-18T01:19:46;56014.06;;;-142.21;76.41
5053;BME280;2545;50.892;5.740;2023-09-18T01:22:16;56029.72;;;-142.21;76.81
5053;BME280;2545;50.892;5.740;2023-09-18T01:24:44;56025.81;;;-142.21;77.19
5053;BME280;2545;50.892;5.740;2023-09-18T01:27:11;56068.94;;;-142.21;77.54
5053;BME280;2545;50.892;5.740;2023-09-18T01:29:42;56021.88;;;-142.21;77.50
5053;BME280;2545;50.892;5.740;2023-09-18T01:32:08;56039.53;;;-142.21;76.95
5053;BME280;2545;50.892;5.740;2023-09-18T01:34:38;56023.84;;;-142.21;77.26
5053;BME280;2545;50.892;5.740;2023-09-18T01:37:07;55990.53;;;-142.21;76.48
5053;BME280;2545;50.892;5.740;2023-09-18T01:39:35;56021.88;;;-142.21;76.42
5053;BME280;2545;50.892;5.740;2023-09-18T01:42:02;55990.53;;;-142.21;76.92
5053;BME280;2545;50.892;5.740;2023-09-18T01:44:29;55994.44;;;-142.21;76.59
5053;BME280;2545;50.892;5.740;2023-09-18T01:46:56;56017.97;;;-142.21;77.19
5053;BME280;2545;50.892;5.740;2023-09-18T01:49:35;56017.97;;;-142.21;76.73
5053;BME280;2545;50.892;5.740;2023-09-18T01:52:02;56025.81;;;-142.21;76.42
5053;BME280;2545;50.892;5.740;2023-09-18T01:54:28;56025.81;;;-142.21;76.44
5053;BME280;2545;50.892;5.740;2023-09-18T01:56:53;56053.25;;;-142.21;75.97
5053;BME280;2545;50.892;5.740;2023-09-18T01:59:19;56014.06;;;-142.21;76.55
5053;BME280;2545;50.892;5.740;2023-09-18T02:01:45;56017.97;;;-142.21;76.34
5053;BME280;2545;50.892;5.740;2023-09-18T02:04:10;56025.81;;;-142.21;75.71
5053;BME280;2545;50.892;5.740;2023-09-18T02:06:36;56061.09;;;-142.21;75.64
5053;BME280;2545;50.892;5.740;2023-09-18T02:09:01;56021.88;;;-142.21;76.41
5053;BME280;2545;50.892;5.740;2023-09-18T02:11:28;56047.38;;;-142.21;77.42
5053;BME280;2545;50.892;5.740;2023-09-18T02:13:54;56023.84;;;-142.21;77.81
5053;BME280;2545;50.892;5.740;2023-09-18T02:16:19;56035.63;;;-142.21;78.23
5053;BME280;2545;50.892;5.740;2023-09-18T02:18:49;56017.97;;;-142.21;77.48
5053;BME280;2545;50.892;5.740;2023-09-18T02:21:21;55986.59;;;-142.21;76.92
5053;BME280;2545;50.892;5.740;2023-09-18T02:23:49;56016.00;;;-142.21;76.71
5053;BME280;2545;50.892;5.740;2023-09-18T02:26:16;56019.94;;;-142.21;76.24
5053;BME280;2545;50.892;5.740;2023-09-18T02:28:41;56041.50;;;-142.21;75.03
5053;BME280;2545;50.892;5.740;2023-09-18T02:31:06;56027.78;;;-142.21;74.73
5053;BME280;2545;50.892;5.740;2023-09-18T02:33:33;56002.28;;;-142.21;75.36
5053;BME280;2545;50.892;5.740;2023-09-18T02:35:58;56008.16;;;-142.21;75.57
5053;BME280;2545;50.892;5.740;2023-09-18T02:38:23;56027.78;;;-142.21;74.18
5053;BME280;2545;50.892;5.740;2023-09-18T02:40:49;56055.22;;;-142.21;74.86
5053;BME280;2545;50.892;5.740;2023-09-18T02:43:15;56010.13;;;-142.21;75.59
5053;BME280;2545;50.892;5.740;2023-09-18T02:45:40;56010.13;;;-142.21;76.33
5053;BME280;2545;50.892;5.740;2023-09-18T02:48:05;56019.94;;;-142.21;76.05
5053;BME280;2545;50.892;5.740;2023-09-18T02:50:31;56012.09;;;-142.21;75.06
5053;BME280;2545;50.892;5.740;2023-09-18T02:52:56;56027.78;;;-142.21;74.89
5053;BME280;2545;50.892;5.740;2023-09-18T02:55:21;56017.97;;;-142.21;74.28
5053;BME280;2545;50.892;5.740;2023-09-18T02:57:47;56010.13;;;-142.21;74.63
5053;BME280;2545;50.892;5.740;2023-09-18T03:00:12;56029.72;;;-142.21;74.54
5053;BME280;2545;50.892;5.740;2023-09-18T03:02:38;56021.88;;;-142.21;73.30
5053;BME280;2545;50.892;5.740;2023-09-18T03:05:03;56035.63;;;-142.21;72.46
5053;BME280;2545;50.892;5.740;2023-09-18T03:07:29;56055.22;;;-142.21;72.03
5053;BME280;2545;50.892;5.740;2023-09-18T03:09:55;56025.81;;;-142.21;71.78
5053;BME280;2545;50.892;5.740;2023-09-18T03:12:20;56006.22;;;-142.21;73.59
5053;BME280;2545;50.892;5.740;2023-09-18T03:14:47;56027.78;;;-142.21;74.82
5053;BME280;2545;50.892;5.740;2023-09-18T03:17:13;56012.09;;;-142.21;74.39
5053;BME280;2545;50.892;5.740;2023-09-18T03:19:38;56035.63;;;-142.21;73.83
5053;BME280;2545;50.892;5.740;2023-09-18T03:22:03;55994.44;;;-142.21;73.18
5053;BME280;2545;50.892;5.740;2023-09-18T03:24:29;56045.41;;;-142.21;74.25
5053;BME280;2545;50.892;5.740;2023-09-18T03:26:54;56025.81;;;-142.21;75.49
5053;BME280;2545;50.892;5.740;2023-09-18T03:29:19;56010.13;;;-142.21;75.63
5053;BME280;2545;50.892;5.740;2023-09-18T03:31:45;56037.56;;;-142.21;75.69
5053;BME280;2545;50.892;5.740;2023-09-18T03:34:10;56017.97;;;-142.21;75.03
5053;BME280;2545;50.892;5.740;2023-09-18T03:36:35;55988.56;;;-142.21;74.81
5053;BME280;2545;50.892;5.740;2023-09-18T03:39:02;56019.94;;;-142.21;75.18
5053;BME280;2545;50.892;5.740;2023-09-18T03:41:28;56039.53;;;-142.21;75.26
5053;BME280;2545;50.892;5.740;2023-09-18T03:43:59;55992.47;;;-142.21;75.98
5053;BME280;2545;50.892;5.740;2023-09-18T03:46:24;56021.88;;;-142.21;74.48
5053;BME280;2545;50.892;5.740;2023-09-18T03:48:49;56006.22;;;-142.21;74.86
5053;BME280;2545;50.892;5.740;2023-09-18T03:51:15;56025.81;;;-142.21;75.00
5053;BME280;2545;50.892;5.740;2023-09-18T03:53:41;56021.88;;;-142.21;75.81
5053;BME280;2545;50.892;5.740;2023-09-18T03:56:06;56006.22;;;-142.21;75.63
5053;BME280;2545;50.892;5.740;2023-09-18T03:58:32;56041.50;;;-142.21;74.98
5053;BME280;2545;50.892;5.740;2023-09-18T04:00:57;56039.53;;;-142.21;75.67
5053;BME280;2545;50.892;5.740;2023-09-18T04:03:22;56017.97;;;-142.21;75.27
5053;BME280;2545;50.892;5.740;2023-09-18T04:05:47;55998.38;;;-142.21;75.41
5053;BME280;2545;50.892;5.740;2023-09-18T04:08:13;56055.22;;;-142.21;75.27
5053;BME280;2545;50.892;5.740;2023-09-18T04:10:38;56021.88;;;-142.21;74.56
5053;BME280;2545;50.892;5.740;2023-09-18T04:13:04;56041.50;;;-142.21;74.31
5053;BME280;2545;50.892;5.740;2023-09-18T04:15:29;56019.94;;;-142.21;74.20
5053;BME280;2545;50.892;5.740;2023-09-18T04:17:57;56057.19;;;-142.21;74.28
5053;BME280;2545;50.892;5.740;2023-09-18T04:20:23;56045.41;;;-142.21;74.25
5053;BME280;2545;50.892;5.740;2023-09-18T04:23:18;56053.25;;;-142.21;74.39
5053;BME280;2545;50.892;5.740;2023-09-18T04:25:45;56016.00;;;-142.21;74.84
5053;BME280;2545;50.892;5.740;2023-09-18T04:28:12;56017.97;;;-142.21;75.77
5053;BME280;2545;50.892;5.740;2023-09-18T04:30:37;56016.00;;;-142.21;76.55
5053;BME280;2545;50.892;5.740;2023-09-18T04:33:03;56031.69;;;-142.21;76.12
5053;BME280;2545;50.892;5.740;2023-09-18T04:35:28;56012.09;;;-142.21;74.91
5053;BME280;2545;50.892;5.740;2023-09-18T04:37:56;56021.88;;;-142.21;74.57
5053;BME280;2545;50.892;5.740;2023-09-18T04:40:22;56023.84;;;-142.21;73.75
5053;BME280;2545;50.892;5.740;2023-09-18T04:42:49;56021.88;;;-142.21;73.25
5053;BME280;2545;50.892;5.740;2023-09-18T04:45:14;56000.31;;;-142.21;73.18
5053;BME280;2545;50.892;5.740;2023-09-18T04:47:41;56021.88;;;-142.21;72.81
5053;BME280;2545;50.892;5.740;2023-09-18T04:50:06;56017.97;;;-142.21;72.54
5053;BME280;2545;50.892;5.740;2023-09-18T04:52:35;56006.22;;;-142.21;72.40
5053;BME280;2545;50.892;5.740;2023-09-18T04:55:00;56010.13;;;-142.21;72.38
5053;BME280;2545;50.892;5.740;2023-09-18T04:57:26;56049.34;;;-142.21;72.04
5053;BME280;2545;50.892;5.740;2023-09-18T04:59:51;56019.94;;;-142.21;72.61
5053;BME280;2545;50.892;5.740;2023-09-18T05:02:16;56008.16;;;-142.21;72.12
5053;BME280;2545;50.892;5.740;2023-09-18T05:04:42;56033.66;;;-142.21;72.06
5053;BME280;2545;50.892;5.740;2023-09-18T05:07:07;56019.94;;;-142.21;72.31
5053;BME280;2545;50.892;5.740;2023-09-18T05:09:33;56019.94;;;-142.21;72.21
5053;BME280;2545;50.892;5.740;2023-09-18T05:11:59;56049.34;;;-142.21;71.87
5053;BME280;2545;50.892;5.740;2023-09-18T05:14:25;56047.38;;;-142.21;72.29
5053;BME280;2545;50.892;5.740;2023-09-18T05:16:50;56019.94;;;-142.21;72.33
5053;BME280;2545;50.892;5.740;2023-09-18T05:19:15;56051.31;;;-142.21;72.39
5053;BME280;2545;50.892;5.740;2023-09-18T05:21:40;56025.81;;;-142.21;72.26
5053;BME280;2545;50.892;5.740;2023-09-18T05:24:07;56006.22;;;-142.21;72.29
5053;BME280;2545;50.892;5.740;2023-09-18T05:26:32;56037.56;;;-142.21;71.33
5053;BME280;2545;50.892;5.740;2023-09-18T05:28:58;56049.34;;;-142.21;71.37
5053;BME280;2545;50.892;5.740;2023-09-18T05:31:24;56033.66;;;-142.21;71.55
5053;BME280;2545;50.892;5.740;2023-09-18T05:33:49;56033.66;;;-142.21;71.28
5053;BME280;2545;50.892;5.740;2023-09-18T05:36:15;56029.72;;;-142.21;70.64
5053;BME280;2545;50.892;5.740;2023-09-18T05:38:41;56033.66;;;-142.21;70.54
5053;BME280;2545;50.892;5.740;2023-09-18T05:41:08;56078.75;;;-142.21;70.77
5053;BME280;2545;50.892;5.740;2023-09-18T05:43:35;56016.00;;;-142.21;72.00
5053;BME280;2545;50.892;5.740;2023-09-18T05:46:01;56057.19;;;-142.21;71.92
5053;BME280;2545;50.892;5.740;2023-09-18T05:48:26;56025.81;;;-142.21;71.71
5053;BME280;2545;50.892;5.740;2023-09-18T05:50:51;56033.66;;;-142.21;71.65
5053;BME280;2545;50.892;5.740;2023-09-18T05:53:19;56059.16;;;-142.21;71.32
5053;BME280;2545;50.892;5.740;2023-09-18T05:55:45;56053.25;;;-142.21;71.65
5053;BME280;2545;50.892;5.740;2023-09-18T05:58:10;56059.16;;;-142.21;72.58
5053;BME280;2545;50.892;5.740;2023-09-18T06:00:35;56041.50;;;-142.21;73.79
5053;BME280;2545;50.892;5.740;2023-09-18T06:03:02;56061.09;;;-142.21;74.38
5053;BME280;2545;50.892;5.740;2023-09-18T06:05:27;56047.38;;;-142.21;74.80
5053;BME280;2545;50.892;5.740;2023-09-18T06:07:53;56068.94;;;-142.21;74.11
5053;BME280;2545;50.892;5.740;2023-09-18T06:10:18;56047.38;;;-142.21;74.16
5053;BME280;2545;50.892;5.740;2023-09-18T06:12:44;56033.66;;;-142.21;74.14
5053;BME280;2545;50.892;5.740;2023-09-18T06:15:10;56072.88;;;-142.21;73.58
5053;BME280;2545;50.892;5.740;2023-09-18T06:17:41;56041.50;;;-142.21;72.77
5053;BME280;2545;50.892;5.740;2023-09-18T06:20:08;56021.88;;;-142.21;72.45
5053;BME280;2545;50.892;5.740;2023-09-18T06:22:35;56053.25;;;-142.21;72.71
5053;BME280;2545;50.892;5.740;2023-09-18T06:25:00;56055.22;;;-142.21;72.15
5053;BME280;2545;50.892;5.740;2023-09-18T06:27:25;56031.69;;;-142.21;71.09
5053;BME280;2545;50.892;5.740;2023-09-18T06:29:51;56041.50;;;-142.21;71.71
5053;BME280;2545;50.892;5.740;2023-09-18T06:32:16;56047.38;;;-142.21;71.00
5053;BME280;2545;50.892;5.740;2023-09-18T06:34:41;55994.44;;;-142.21;70.12
5053;BME280;2545;50.892;5.740;2023-09-18T06:37:09;56031.69;;;-142.21;69.99
5053;BME280;2545;50.892;5.740;2023-09-18T06:39:37;56041.50;;;-142.21;70.79
5053;BME280;2545;50.892;5.740;2023-09-18T06:42:03;56041.50;;;-142.21;70.63
5053;BME280;2545;50.892;5.740;2023-09-18T06:44:28;56031.69;;;-142.21;71.53
5053;BME280;2545;50.892;5.740;2023-09-18T06:46:54;56039.53;;;-142.21;71.92
5053;BME280;2545;50.892;5.740;2023-09-18T06:49:19;56065.03;;;-142.21;71.63
5053;BME280;2545;50.892;5.740;2023-09-18T06:51:44;56039.53;;;-142.21;70.89
5053;BME280;2545;50.892;5.740;2023-09-18T06:54:10;56055.22;;;-142.21;71.75
5053;BME280;2545;50.892;5.740;2023-09-18T06:56:35;56023.84;;;-142.21;70.18
5053;BME280;2545;50.892;5.740;2023-09-18T06:59:01;56051.31;;;-142.21;70.96
5053;BME280;2545;50.892;5.740;2023-09-18T07:01:26;56017.97;;;-142.21;71.07
5053;BME280;2545;50.892;5.740;2023-09-18T07:03:53;56043.47;;;-142.21;69.81
5053;BME280;2545;50.892;5.740;2023-09-18T07:06:18;56017.97;;;-142.21;69.61
5053;BME280;2545;50.892;5.740;2023-09-18T07:08:45;56072.88;;;-142.21;68.61
5053;BME280;2545;50.892;5.740;2023-09-18T07:11:11;56055.22;;;-142.21;69.49
5053;BME280;2545;50.892;5.740;2023-09-18T07:13:37;56012.09;;;-142.21;68.73
5053;BME280;2545;50.892;5.740;2023-09-18T07:16:03;56035.63;;;-142.21;68.37
5053;BME280;2545;50.892;5.740;2023-09-18T07:18:28;56061.09;;;-142.21;68.06
5053;BME280;2545;50.892;5.740;2023-09-18T07:20:53;56016.00;;;-142.21;68.61
5053;BME280;2545;50.892;5.740;2023-09-18T07:23:20;56037.56;;;-142.21;67.17
5053;BME280;2545;50.892;5.740;2023-09-18T07:25:47;56025.81;;;-142.21;67.29
5053;BME280;2545;50.892;5.740;2023-09-18T07:28:13;55984.63;;;-142.21;67.78
5053;BME280;2545;50.892;5.740;2023-09-18T07:30:42;56025.81;;;-142.21;68.14
5053;BME280;2545;50.892;5.740;2023-09-18T07:33:09;56021.88;;;-142.21;69.39
5053;BME280;2545;50.892;5.740;2023-09-18T07:35:35;56076.78;;;-142.21;67.85
5053;BME280;2545;50.892;5.740;2023-09-18T07:38:00;56008.16;;;-142.21;67.64
5053;BME280;2545;50.892;5.740;2023-09-18T07:40:25;56037.56;;;-142.21;67.42
5053;BME280;2545;50.892;5.740;2023-09-18T07:42:51;56041.50;;;-142.21;67.17
5053;BME280;2545;50.892;5.740;2023-09-18T07:45:16;56051.31;;;-142.21;66.87
5053;BME280;2545;50.892;5.740;2023-09-18T07:47:43;56021.88;;;-142.21;67.44
5053;BME280;2545;50.892;5.740;2023-09-18T07:50:08;56021.88;;;-142.21;66.62
5053;BME280;2545;50.892;5.740;2023-09-18T07:52:33;56055.22;;;-142.21;66.30
5053;BME280;2545;50.892;5.740;2023-09-18T07:54:59;56053.25;;;-142.21;66.98
5053;BME280;2545;50.892;5.740;2023-09-18T07:57:25;56043.47;;;-142.21;66.68
5053;BME280;2545;50.892;5.740;2023-09-18T07:59:53;56025.81;;;-142.21;66.72
5053;BME280;2545;50.892;5.740;2023-09-18T08:02:19;56023.84;;;-142.21;65.92
5053;BME280;2545;50.892;5.740;2023-09-18T08:04:44;56041.50;;;-142.21;66.47
5053;BME280;2545;50.892;5.740;2023-09-18T08:07:10;56033.66;;;-142.21;65.38
5053;BME280;2545;50.892;5.740;2023-09-18T08:09:35;56016.00;;;-142.21;65.17
5053;BME280;2545;50.892;5.740;2023-09-18T08:12:08;56061.09;;;-142.21;65.63
5053;BME280;2545;50.892;5.740;2023-09-18T08:14:34;56012.09;;;-142.21;65.25
5053;BME280;2545;50.892;5.740;2023-09-18T08:17:01;56057.19;;;-142.21;65.34
5053;BME280;2545;50.892;5.740;2023-09-18T08:19:28;56023.84;;;-142.21;63.84
5053;BME280;2545;50.892;5.740;2023-09-18T08:21:54;56033.66;;;-142.21;63.98
5053;BME280;2545;50.892;5.740;2023-09-18T08:24:20;56053.25;;;-142.21;64.58
5053;BME280;2545;50.892;5.740;2023-09-18T08:26:46;56021.88;;;-142.21;64.77
5053;BME280;2545;50.892;5.740;2023-09-18T08:29:11;56006.22;;;-142.21;64.72
5053;BME280;2545;50.892;5.740;2023-09-18T08:31:36;56033.66;;;-142.21;64.15
5053;BME280;2545;50.892;5.740;2023-09-18T08:34:02;56041.50;;;-142.21;64.73
5053;BME280;2545;50.892;5.740;2023-09-18T08:36:27;56051.31;;;-142.21;65.25
5053;BME280;2545;50.892;5.740;2023-09-18T08:38:55;56033.66;;;-142.21;63.88
5053;BME280;2545;50.892;5.740;2023-09-18T08:41:23;56049.34;;;-142.21;64.08
5053;BME280;2545;50.892;5.740;2023-09-18T08:43:52;56041.50;;;-142.21;63.76
5053;BME280;2545;50.892;5.740;2023-09-18T08:46:18;56078.75;;;-142.21;63.65
5053;BME280;2545;50.892;5.740;2023-09-18T08:48:44;56061.09;;;-142.21;63.77
5053;BME280;2545;50.892;5.740;2023-09-18T08:51:10;56055.22;;;-142.21;64.88
5053;BME280;2545;50.892;5.740;2023-09-18T08:53:36;56006.22;;;-142.21;63.38
5053;BME280;2545;50.892;5.740;2023-09-18T08:56:04;56014.06;;;-142.21;63.20
5053;BME280;2545;50.892;5.740;2023-09-18T08:58:36;56019.94;;;-142.21;62.67
5053;BME280;2545;50.892;5.740;2023-09-18T09:01:04;56021.88;;;-142.21;62.47
5053;BME280;2545;50.892;5.740;2023-09-18T09:03:31;56031.69;;;-142.21;62.13
5053;BME280;2545;50.892;5.740;2023-09-18T09:05:57;56002.28;;;-142.21;62.70
5053;BME280;2545;50.892;5.740;2023-09-18T09:08:27;56023.84;;;-142.21;61.04
5053;BME280;2545;50.892;5.740;2023-09-18T09:10:52;56061.09;;;-142.21;60.86
5053;BME280;2545;50.892;5.740;2023-09-18T09:13:18;56014.06;;;-142.21;60.94
5053;BME280;2545;50.892;5.740;2023-09-18T09:15:46;55974.84;;;-142.21;59.51
5053;BME280;2545;50.892;5.740;2023-09-18T09:18:12;56035.63;;;-142.21;59.38
5053;BME280;2545;50.892;5.740;2023-09-18T09:20:40;56019.94;;;-142.21;58.70
5053;BME280;2545;50.892;5.740;2023-09-18T09:23:08;56014.06;;;-142.21;59.11
5053;BME280;2545;50.892;5.740;2023-09-18T09:25:34;55984.63;;;-142.21;58.51
5053;BME280;2545;50.892;5.740;2023-09-18T09:28:02;55959.16;;;-142.21;56.48
5053;BME280;2545;50.892;5.740;2023-09-18T09:30:30;55988.56;;;-142.21;57.78
5053;BME280;2545;50.892;5.740;2023-09-18T09:32:57;55978.75;;;-142.21;57.02
5053;BME280;2545;50.892;5.740;2023-09-18T09:35:28;55998.38;;;-142.21;56.77
5053;BME280;2545;50.892;5.740;2023-09-18T09:38:00;55965.03;;;-142.21;55.61
5053;BME280;2545;50.892;5.740;2023-09-18T09:40:26;55978.75;;;-142.21;54.26
5053;BME280;2545;50.892;5.740;2023-09-18T09:42:54;56000.31;;;-142.21;53.70
5053;BME280;2545;50.892;5.740;2023-09-18T09:45:26;55976.78;;;-142.21;54.10
5053;BME280;2545;50.892;5.740;2023-09-18T09:47:56;55982.69;;;-142.21;55.07
5053;BME280;2545;50.892;5.740;2023-09-18T09:50:22;55992.47;;;-142.21;56.31
5053;BME280;2545;50.892;5.740;2023-09-18T09:52:49;56035.63;;;-142.21;56.34
5053;BME280;2545;50.892;5.740;2023-09-18T09:55:27;55968.94;;;-142.21;55.64
5053;BME280;2545;50.892;5.740;2023-09-18T09:58:11;55941.50;;;-142.21;53.39
5053;BME280;2545;50.892;5.740;2023-09-18T10:00:45;55939.53;;;-142.21;51.88
5053;BME280;2545;50.892;5.740;2023-09-18T10:03:16;55968.94;;;-142.21;49.39
5053;BME280;2545;50.892;5.740;2023-09-18T10:05:43;55974.84;;;-142.21;46.12
5053;BME280;2545;50.892;5.740;2023-09-18T10:08:15;55931.69;;;-142.21;47.13
5053;BME280;2545;50.892;5.740;2023-09-18T10:10:55;55982.69;;;-142.21;49.35
5053;BME280;2545;50.892;5.740;2023-09-18T10:13:32;55919.94;;;-142.21;46.62
5053;BME280;2545;50.892;5.740;2023-09-18T10:15:58;55939.53;;;-142.21;49.76
5053;BME280;2545;50.892;5.740;2023-09-18T10:18:28;55957.19;;;-142.21;47.00
5053;BME280;2545;50.892;5.740;2023-09-18T10:21:08;55935.63;;;-142.21;48.58
5053;BME280;2545;50.892;5.740;2023-09-18T10:23:53;55935.63;;;-142.21;46.04
5053;BME280;2545;50.892;5.740;2023-09-18T10:26:23;55898.38;;;-142.21;43.64
5053;BME280;2545;50.892;5.740;2023-09-18T10:28:52;55919.94;;;-142.21;44.16
5053;BME280;2545;50.892;5.740;2023-09-18T10:31:21;55912.09;;;-142.21;44.57
5053;BME280;2545;50.892;5.740;2023-09-18T10:33:48;55927.78;;;-142.21;44.98
5053;BME280;2545;50.892;5.740;2023-09-18T10:36:15;55945.41;;;-142.21;45.39
5053;BME280;2545;50.892;5.740;2023-09-18T10:38:44;55910.13;;;-142.21;42.03
5053;BME280;2545;50.892;5.740;2023-09-18T10:41:15;55868.94;;;-142.21;41.22
5053;BME280;2545;50.892;5.740;2023-09-18T10:43:42;55921.91;;;-142.21;43.05
5053;BME280;2545;50.892;5.740;2023-09-18T10:46:08;55927.78;;;-142.21;45.01
5053;BME280;2545;50.892;5.740;2023-09-18T10:48:34;55974.84;;;-142.21;48.99
5053;BME280;2545;50.892;5.740;2023-09-18T10:51:00;55937.56;;;-142.21;48.02
5053;BME280;2545;50.892;5.740;2023-09-18T10:53:31;55984.63;;;-142.21;47.43
5053;BME280;2545;50.892;5.740;2023-09-18T10:55:57;55933.66;;;-142.21;46.68
5053;BME280;2545;50.892;5.740;2023-09-18T10:58:24;55941.50;;;-142.21;45.53
5053;BME280;2545;50.892;5.740;2023-09-18T11:00:50;55912.09;;;-142.21;43.97
5053;BME280;2545;50.892;5.740;2023-09-18T11:03:17;55884.63;;;-142.21;41.05
5053;BME280;2545;50.892;5.740;2023-09-18T11:05:44;55939.53;;;-142.21;40.55
5053;BME280;2545;50.892;5.740;2023-09-18T11:08:30;55884.63;;;-142.21;40.82
5053;BME280;2545;50.892;5.740;2023-09-18T11:11:22;55831.69;;;-142.21;38.96
5053;BME280;2545;50.892;5.740;2023-09-18T11:13:52;55870.91;;;-142.21;37.99
5053;BME280;2545;50.892;5.740;2023-09-18T11:18:52;55880.72;;;-142.21;40.24
5053;BME280;2545;50.892;5.740;2023-09-18T11:21:24;55896.41;;;-142.21;41.25
5053;BME280;2545;50.892;5.740;2023-09-18T11:24:01;55923.84;;;-142.21;42.11
5053;BME280;2545;50.892;5.740;2023-09-18T11:26:32;55947.38;;;-142.21;41.88
5053;BME280;2545;50.892;5.740;2023-09-18T11:29:05;55927.78;;;-142.21;46.24
5053;BME280;2545;50.892;5.740;2023-09-18T11:31:50;55906.22;;;-142.21;42.74
5053;BME280;2545;50.892;5.740;2023-09-18T11:36:48;55884.63;;;-142.21;38.84
5053;BME280;2545;50.892;5.740;2023-09-18T11:39:39;55835.63;;;-142.21;38.08
5053;BME280;2545;50.892;5.740;2023-09-18T11:42:21;55817.97;;;-142.21;38.41
5053;BME280;2545;50.892;5.740;2023-09-18T11:44:54;55810.13;;;-142.21;36.67
5053;BME280;2545;50.892;5.740;2023-09-18T11:47:23;55849.34;;;-142.21;37.27
5053;BME280;2545;50.892;5.740;2023-09-18T11:49:59;55876.78;;;-142.21;38.64
5053;BME280;2545;50.892;5.740;2023-09-18T11:52:26;55870.91;;;-142.21;37.58
5053;BME280;2545;50.892;5.740;2023-09-18T11:54:55;55886.59;;;-142.21;39.05
5053;BME280;2545;50.892;5.740;2023-09-18T11:57:20;55916.00;;;-142.21;40.62
5053;BME280;2545;50.892;5.740;2023-09-18T11:59:46;55919.94;;;-142.21;40.45
5053;BME280;2545;50.892;5.740;2023-09-18T12:02:32;55845.44;;;-142.21;38.71
5053;BME280;2545;50.892;5.740;2023-09-18T12:05:20;55855.22;;;-142.21;36.05
5053;BME280;2545;50.892;5.740;2023-09-18T12:07:47;55874.84;;;-142.21;36.36
5053;BME280;2545;50.892;5.740;2023-09-18T12:10:14;55861.09;;;-142.21;36.77
5053;BME280;2545;50.892;5.740;2023-09-18T12:12:42;55884.63;;;-142.21;38.31
5053;BME280;2545;50.892;5.740;2023-09-18T12:15:11;55870.91;;;-142.21;37.65
5053;BME280;2545;50.892;5.740;2023-09-18T12:17:37;55859.16;;;-142.21;37.33
5053;BME280;2545;50.892;5.740;2023-09-18T12:20:03;55890.53;;;-142.21;37.99
5053;BME280;2545;50.892;5.740;2023-09-18T12:22:30;55923.84;;;-142.21;40.55
5053;BME280;2545;50.892;5.740;2023-09-18T12:25:13;55925.81;;;-142.21;43.49
5053;BME280;2545;50.892;5.740;2023-09-18T12:27:43;55945.41;;;-142.21;42.74
5053;BME280;2545;50.892;5.740;2023-09-18T12:30:09;55978.75;;;-142.21;41.88
5053;BME280;2545;50.892;5.740;2023-09-18T12:32:37;55912.09;;;-142.21;41.47
5053;BME280;2545;50.892;5.740;2023-09-18T12:35:03;55880.72;;;-142.21;37.86
5053;BME280;2545;50.892;5.740;2023-09-18T12:37:32;55929.75;;;-142.21;39.59
5053;BME280;2545;50.892;5.740;2023-09-18T12:39:57;55933.66;;;-142.21;39.98
5053;BME280;2545;50.892;5.740;2023-09-18T12:42:22;55927.78;;;-142.21;39.81
5053;BME280;2545;50.892;5.740;2023-09-18T12:44:49;55927.78;;;-142.21;40.39
5053;BME280;2545;50.892;5.740;2023-09-18T12:47:14;55912.09;;;-142.21;39.55
5053;BME280;2545;50.892;5.740;2023-09-18T12:49:40;55974.84;;;-142.21;41.44
5053;BME280;2545;50.892;5.740;2023-09-18T12:52:05;55927.78;;;-142.21;42.51
5053;BME280;2545;50.892;5.740;2023-09-18T12:57:04;55906.22;;;-142.21;38.97
5053;BME280;2545;50.892;5.740;2023-09-18T12:59:32;55927.78;;;-142.21;39.85
5053;BME280;2545;50.892;5.740;2023-09-18T13:01:57;55933.66;;;-142.21;39.99
5053;BME280;2545;50.892;5.740;2023-09-18T13:04:23;55933.66;;;-142.21;38.53
5053;BME280;2545;50.892;5.740;2023-09-18T13:07:03;55896.41;;;-142.21;39.07
5053;BME280;2545;50.892;5.740;2023-09-18T13:09:28;55827.78;;;-142.21;36.99
5053;BME280;2545;50.892;5.740;2023-09-18T13:11:57;55898.38;;;-142.21;37.89